Terminal Aerodrome Forecast
Issued by NWS Mt. Holly, NJ

Home | Current Version | Previous Version | Text Only | Print | Product List | Glossary On
Versions: 1 2 3 4 5 6 7 8 9 10 11 12 13 14 15 16 17 18
000
FTUS41 KPHI 291738
TAFRDG
TAF
KRDG 291738Z 2918/3018 07010G20KT P6SM OVC012
      TEMPO 2921/2924 5SM -RADZ BR OVC008
     FM300000 06011G17KT P6SM OVC010
      TEMPO 3012/3016 3SM RA BR OVC008=

USA.gov is the U.S. government's official web portal to all federal, state and local government web resources and services.